createdAt,value
2023-06-11T00:00:17.803Z,100852.28
2023-06-11T00:03:08.104Z,100859.16
2023-06-11T00:05:37.360Z,100854.00
2023-06-11T00:08:07.029Z,100856.34
2023-06-11T00:10:36.452Z,100852.31
2023-06-11T00:13:05.457Z,100857.91
2023-06-11T00:15:34.783Z,100858.91
2023-06-11T00:18:03.617Z,100866.78
2023-06-11T00:20:34.291Z,100860.78
2023-06-11T00:23:03.232Z,100860.34
2023-06-11T00:25:33.604Z,100861.47
2023-06-11T00:28:02.566Z,100862.19
2023-06-11T00:30:32.317Z,100864.16
2023-06-11T00:33:01.526Z,100863.75
2023-06-11T00:35:31.290Z,100865.03
2023-06-11T00:38:01.746Z,100862.31
2023-06-11T00:40:30.997Z,100866.81
2023-06-11T00:42:59.958Z,100869.63
2023-06-11T00:45:29.619Z,100870.75
2023-06-11T00:47:58.751Z,100866.00
2023-06-11T00:50:29.910Z,100866.25
2023-06-11T00:53:00.380Z,100872.03
2023-06-11T00:55:29.706Z,100864.59
2023-06-11T00:57:58.620Z,100866.56
2023-06-11T01:00:29.096Z,100867.66
2023-06-11T01:03:09.039Z,100873.97
2023-06-11T01:05:44.584Z,100871.72
2023-06-11T01:08:18.154Z,100878.31
2023-06-11T01:10:50.662Z,100871.56
2023-06-11T01:13:20.403Z,100873.53
2023-06-11T01:15:50.957Z,100874.66
2023-06-11T01:18:25.111Z,100877.44
2023-06-11T01:21:04.540Z,100885.41
2023-06-11T01:23:44.906Z,100884.16
2023-06-11T01:26:31.006Z,100893.09
2023-06-11T01:29:05.377Z,100886.94
2023-06-11T01:31:39.750Z,100889.31
2023-06-11T01:34:10.053Z,100888.84
2023-06-11T01:36:40.716Z,100887.53
2023-06-11T01:39:10.549Z,100896.38
2023-06-11T01:42:02.808Z,100897.88
2023-06-11T01:44:34.376Z,100892.44
2023-06-11T01:47:03.516Z,100897.16
2023-06-11T01:49:32.805Z,100909.75
2023-06-11T01:52:01.984Z,100911.53
2023-06-11T01:54:31.091Z,100910.97
2023-06-11T01:57:00.278Z,100909.28
2023-06-11T01:59:29.237Z,100907.59
2023-06-11T02:02:00.345Z,100914.59
2023-06-11T02:04:29.547Z,100920.91
2023-06-11T02:06:59.211Z,100920.56
2023-06-11T02:09:28.132Z,100918.69
2023-06-11T02:11:57.365Z,100917.78
2023-06-11T02:14:26.568Z,100921.91
2023-06-11T02:16:55.990Z,100918.25
2023-06-11T02:19:26.346Z,100925.50
2023-06-11T02:21:55.623Z,100922.84
2023-06-11T02:24:24.758Z,100927.84
2023-06-11T02:26:53.957Z,100930.50
2023-06-11T02:29:23.066Z,100934.66
2023-06-11T02:31:52.132Z,100943.44
2023-06-11T02:34:20.962Z,100938.44
2023-06-11T02:36:51.943Z,100939.38
2023-06-11T02:39:21.008Z,100939.19
2023-06-11T02:41:50.174Z,100952.72
2023-06-11T02:44:19.063Z,100952.00
2023-06-11T02:46:48.320Z,100950.19
2023-06-11T02:49:17.305Z,100945.16
2023-06-11T02:51:46.417Z,100956.47
2023-06-11T02:54:16.649Z,100948.91
2023-06-11T02:56:45.951Z,100955.19
2023-06-11T02:59:15.168Z,100960.22
2023-06-11T03:01:44.468Z,100961.22
2023-06-11T03:04:13.709Z,100966.28
2023-06-11T03:06:42.981Z,100965.94
2023-06-11T03:09:11.930Z,100970.13
2023-06-11T03:11:42.573Z,100970.97
2023-06-11T03:14:11.363Z,100973.97
2023-06-11T03:16:40.555Z,100970.09
2023-06-11T03:19:09.756Z,100971.44
2023-06-11T03:21:39.182Z,100973.38
2023-06-11T03:24:09.334Z,100978.69
2023-06-11T03:26:38.634Z,100968.41
2023-06-11T03:29:09.143Z,100972.28
2023-06-11T03:31:47.149Z,100969.50
2023-06-11T03:34:16.538Z,100978.50
2023-06-11T03:36:46.408Z,100977.06
2023-06-11T03:39:18.980Z,100980.84
2023-06-11T03:41:51.545Z,100993.13
2023-06-11T03:44:23.788Z,100993.63
2023-06-11T03:46:53.574Z,100991.53
2023-06-11T03:49:22.563Z,100994.31
2023-06-11T03:51:51.830Z,101001.44
2023-06-11T03:54:20.875Z,101000.13
2023-06-11T03:56:51.561Z,101001.72
2023-06-11T03:59:20.718Z,101004.47
2023-06-11T04:01:51.435Z,101010.28
2023-06-11T04:04:20.462Z,101015.38
2023-06-11T04:06:50.420Z,101014.31
2023-06-11T04:09:19.959Z,101024.28
2023-06-11T04:11:49.190Z,101022.03
2023-06-11T04:14:18.324Z,101018.75
2023-06-11T04:16:47.634Z,101022.03
2023-06-11T04:19:19.524Z,101024.94
2023-06-11T04:21:49.896Z,101023.69
2023-06-11T04:24:18.953Z,101028.25
2023-06-11T04:26:49.339Z,101023.66
2023-06-11T04:29:19.788Z,101034.28
2023-06-11T04:31:52.328Z,101029.56
2023-06-11T04:34:30.352Z,101025.19
2023-06-11T04:37:02.249Z,101026.97
2023-06-11T04:39:32.715Z,101025.88
2023-06-11T04:42:04.349Z,101028.97
2023-06-11T04:44:33.309Z,101032.09
2023-06-11T04:47:05.787Z,101029.78
2023-06-11T04:49:38.914Z,101031.25
2023-06-11T04:52:09.704Z,101026.28
2023-06-11T04:54:42.714Z,101039.16
2023-06-11T04:57:12.151Z,101044.94
2023-06-11T04:59:41.057Z,101042.88
2023-06-11T05:02:10.745Z,101041.63
2023-06-11T05:04:41.302Z,101039.75
2023-06-11T05:07:12.024Z,101041.28
2023-06-11T05:09:44.460Z,101043.88
2023-06-11T05:12:15.793Z,101039.34
2023-06-11T05:14:46.484Z,101037.84
2023-06-11T05:17:17.083Z,101039.84
2023-06-11T05:19:49.916Z,101045.19
2023-06-11T05:22:19.603Z,101042.41
2023-06-11T05:24:48.997Z,101047.06
2023-06-11T05:27:18.559Z,101045.13
2023-06-11T05:29:47.963Z,101050.34
2023-06-11T05:32:19.202Z,101048.13
2023-06-11T05:34:51.223Z,101049.34
2023-06-11T05:37:23.132Z,101056.06
2023-06-11T05:39:52.072Z,101054.31
2023-06-11T05:42:22.314Z,101065.06
2023-06-11T05:44:51.471Z,101058.66
2023-06-11T05:47:20.920Z,101067.56
2023-06-11T05:49:53.399Z,101060.16
2023-06-11T05:52:22.643Z,101066.97
2023-06-11T05:54:51.626Z,101067.59
2023-06-11T05:57:23.185Z,101064.94
2023-06-11T05:59:54.234Z,101060.41
2023-06-11T06:02:24.697Z,101063.69
2023-06-11T06:04:56.529Z,101068.16
2023-06-11T06:07:25.956Z,101073.66
2023-06-11T06:09:56.620Z,101070.91
2023-06-11T06:12:25.815Z,101074.16
2023-06-11T06:14:54.718Z,101079.44
2023-06-11T06:17:24.020Z,101074.38
2023-06-11T06:19:53.259Z,101070.25
2023-06-11T06:22:23.876Z,101069.66
2023-06-11T06:24:52.846Z,101072.22
2023-06-11T06:27:22.444Z,101070.25
2023-06-11T06:29:52.095Z,101061.44
2023-06-11T06:32:21.453Z,101072.31
2023-06-11T06:34:50.891Z,101075.19
2023-06-11T06:37:20.180Z,101071.38
2023-06-11T06:39:52.349Z,101071.38
2023-06-11T06:42:21.735Z,101068.09
2023-06-11T06:44:55.442Z,101074.63
2023-06-11T06:47:24.914Z,101077.66
2023-06-11T06:49:54.058Z,101071.63
2023-06-11T06:52:23.108Z,101072.78
2023-06-11T06:54:53.439Z,101073.81
2023-06-11T06:57:22.633Z,101071.97
2023-06-11T06:59:51.539Z,101072.97
2023-06-11T07:02:21.499Z,101076.47
2023-06-11T07:04:52.672Z,101065.41
2023-06-11T07:07:21.994Z,101074.28
2023-06-11T07:09:52.762Z,101069.75
2023-06-11T07:12:22.588Z,101067.88
2023-06-11T07:14:52.389Z,101068.72
2023-06-11T07:17:23.036Z,101062.88
2023-06-11T07:19:52.499Z,101074.78
2023-06-11T07:22:22.008Z,101089.19
2023-06-11T07:24:53.430Z,101081.81
2023-06-11T07:27:22.583Z,101080.47
2023-06-11T07:29:53.439Z,101081.00
2023-06-11T07:32:22.857Z,101074.41
2023-06-11T07:34:51.902Z,101078.25
2023-06-11T07:37:20.994Z,101083.13
2023-06-11T07:39:50.022Z,101078.41
2023-06-11T07:42:20.870Z,101079.91
2023-06-11T07:44:49.831Z,101086.44
2023-06-11T07:47:19.053Z,101083.84
2023-06-11T07:49:47.984Z,101095.38
2023-06-11T07:52:17.597Z,101089.56
2023-06-11T07:54:47.172Z,101082.50
2023-06-11T07:57:17.030Z,101090.88
2023-06-11T07:59:47.378Z,101090.22
2023-06-11T08:02:16.837Z,101088.69
2023-06-11T08:04:46.190Z,101064.88
2023-06-11T08:07:15.364Z,101071.44
2023-06-11T08:09:44.556Z,101086.34
2023-06-11T08:12:14.621Z,101070.91
2023-06-11T08:14:43.538Z,101066.53
2023-06-11T08:17:14.392Z,101069.72
2023-06-11T08:19:43.222Z,101074.75
2023-06-11T08:22:12.409Z,101079.47
2023-06-11T08:24:41.847Z,101074.13
2023-06-11T08:27:11.124Z,101074.09
2023-06-11T08:29:40.230Z,101068.22
2023-06-11T08:32:10.056Z,101067.34
2023-06-11T08:34:40.364Z,101073.75
2023-06-11T08:37:09.566Z,101068.84
2023-06-11T08:39:38.544Z,101075.38
2023-06-11T08:42:09.039Z,101068.03
2023-06-11T08:44:38.257Z,101064.72
2023-06-11T08:47:11.234Z,101061.88
2023-06-11T08:49:43.946Z,101050.97
2023-06-11T08:52:15.845Z,101051.47
2023-06-11T08:54:45.035Z,101051.06
2023-06-11T08:57:14.374Z,101051.19
2023-06-11T08:59:43.300Z,101054.94
2023-06-11T09:02:12.618Z,101047.06
2023-06-11T09:04:45.063Z,101052.91
2023-06-11T09:07:25.759Z,101044.22
2023-06-11T09:10:05.842Z,101050.97
2023-06-11T09:12:35.625Z,101046.13
2023-06-11T09:15:08.258Z,101044.06
2023-06-11T09:17:38.565Z,101041.97
2023-06-11T09:20:12.838Z,101036.88
2023-06-11T09:22:45.207Z,101039.44
2023-06-11T09:25:18.272Z,101026.00
2023-06-11T09:27:49.859Z,101039.19
2023-06-11T09:30:21.233Z,101032.44
2023-06-11T09:32:51.560Z,101030.50
2023-06-11T09:35:23.282Z,101026.41
2023-06-11T09:37:54.549Z,101038.06
2023-06-11T09:40:25.366Z,101019.78
2023-06-11T09:42:54.623Z,101018.63
2023-06-11T09:45:24.897Z,101019.22
2023-06-11T09:47:55.390Z,101023.78
2023-06-11T09:50:26.943Z,101013.13
2023-06-11T09:52:59.071Z,101023.72
2023-06-11T09:55:29.176Z,101021.16
2023-06-11T09:57:59.087Z,101018.88
2023-06-11T10:00:27.997Z,101022.84
2023-06-11T10:02:57.578Z,101023.06
2023-06-11T10:05:29.638Z,101010.84
2023-06-11T10:08:07.062Z,101020.88
2023-06-11T10:10:41.537Z,101017.59
2023-06-11T10:13:10.886Z,101019.63
2023-06-11T10:15:40.615Z,101008.84
2023-06-11T10:18:16.372Z,101002.09
2023-06-11T10:21:01.180Z,101004.69
2023-06-11T10:23:38.758Z,100983.34
2023-06-11T10:26:09.253Z,101006.38
2023-06-11T10:28:42.998Z,101007.50
2023-06-11T10:31:12.001Z,100995.38
2023-06-11T10:33:48.178Z,100996.31
2023-06-11T10:36:29.163Z,100998.63
2023-06-11T10:39:07.481Z,101001.69
2023-06-11T10:41:40.444Z,100997.22
2023-06-11T10:44:11.905Z,100987.16
2023-06-11T10:46:50.305Z,100996.97
2023-06-11T10:49:21.409Z,100994.13
2023-06-11T10:51:53.801Z,101001.19
2023-06-11T10:54:27.280Z,100998.00
2023-06-11T10:56:57.100Z,100993.44
2023-06-11T10:59:26.291Z,100994.06
2023-06-11T11:01:56.089Z,100990.03
2023-06-11T11:04:26.205Z,100996.53
2023-06-11T11:07:09.648Z,100992.81
2023-06-11T11:09:39.383Z,100995.38
2023-06-11T11:12:09.616Z,100994.00
2023-06-11T11:14:38.907Z,100988.72
2023-06-11T11:17:08.498Z,100997.00
2023-06-11T11:19:38.085Z,100975.78
2023-06-11T11:22:08.578Z,100976.66
2023-06-11T11:24:40.796Z,100983.34
2023-06-11T11:27:10.410Z,100986.69
2023-06-11T11:29:39.702Z,100985.31
2023-06-11T11:32:09.788Z,100993.03
2023-06-11T11:34:41.504Z,100981.84
2023-06-11T11:37:12.358Z,100987.84
2023-06-11T11:39:41.627Z,100991.97
2023-06-11T11:42:11.778Z,100984.06
2023-06-11T11:44:42.571Z,100986.28
2023-06-11T11:47:11.823Z,100975.09
2023-06-11T11:49:41.289Z,100973.13
2023-06-11T11:52:14.042Z,100980.38
2023-06-11T11:54:45.558Z,100984.31
2023-06-11T11:57:14.755Z,100983.81
2023-06-11T11:59:44.364Z,100964.59
2023-06-11T12:02:13.211Z,100968.13
2023-06-11T12:04:51.033Z,100974.69
2023-06-11T12:07:22.956Z,100984.81
2023-06-11T12:09:52.131Z,100968.28
2023-06-11T12:12:21.051Z,100973.97
2023-06-11T12:14:50.206Z,100972.22
2023-06-11T12:17:19.339Z,100973.03
2023-06-11T12:19:48.637Z,100986.41
2023-06-11T12:22:17.632Z,100981.94
2023-06-11T12:24:47.925Z,100982.97
2023-06-11T12:27:17.168Z,100969.53
2023-06-11T12:29:46.994Z,100972.16
2023-06-11T12:32:16.466Z,100971.00
2023-06-11T12:34:45.535Z,100980.75
2023-06-11T12:37:15.228Z,100962.84
2023-06-11T12:39:45.264Z,100965.31
2023-06-11T12:42:16.256Z,100963.78
2023-06-11T12:44:46.769Z,100971.94
2023-06-11T12:47:16.793Z,100973.03
2023-06-11T12:49:46.777Z,100965.91
2023-06-11T12:52:16.911Z,100961.81
2023-06-11T12:54:46.068Z,100956.81
2023-06-11T12:57:17.357Z,100959.31
2023-06-11T12:59:46.673Z,100953.66
2023-06-11T13:02:19.399Z,100949.19
2023-06-11T13:04:48.898Z,100949.19
2023-06-11T13:07:18.455Z,100948.00
2023-06-11T13:09:48.051Z,100961.63
2023-06-11T13:12:19.296Z,100964.88
2023-06-11T13:14:48.725Z,100952.38
2023-06-11T13:17:17.820Z,100954.00
2023-06-11T13:19:46.862Z,100951.25
2023-06-11T13:22:17.469Z,100951.78
2023-06-11T13:24:46.718Z,100959.78
2023-06-11T13:27:16.028Z,100956.47
2023-06-11T13:29:46.678Z,100954.75
2023-06-11T13:32:17.042Z,100954.94
2023-06-11T13:34:46.159Z,100954.97
2023-06-11T13:37:15.759Z,100950.06
2023-06-11T13:39:44.816Z,100958.91
2023-06-11T13:42:14.278Z,100954.75
2023-06-11T13:44:43.277Z,100956.50
2023-06-11T13:47:14.279Z,100954.47
2023-06-11T13:49:43.315Z,100962.00
2023-06-11T13:52:12.515Z,100944.00
2023-06-11T13:54:43.781Z,100952.34
2023-06-11T13:57:12.920Z,100953.38
2023-06-11T13:59:41.976Z,100949.00
2023-06-11T14:02:11.295Z,100942.97
2023-06-11T14:04:41.607Z,100949.19
2023-06-11T14:07:11.162Z,100951.03
2023-06-11T14:09:40.841Z,100949.19
2023-06-11T14:12:10.848Z,100941.34
2023-06-11T14:14:39.692Z,100934.00
2023-06-11T14:17:09.200Z,100933.00
2023-06-11T14:19:38.110Z,100933.50
2023-06-11T14:22:08.985Z,100938.06
2023-06-11T14:24:37.946Z,100940.38
2023-06-11T14:27:08.849Z,100940.88
2023-06-11T14:29:37.620Z,100943.63
2023-06-11T14:32:08.446Z,100938.00
2023-06-11T14:34:37.511Z,100938.28
2023-06-11T14:37:08.716Z,100937.66
2023-06-11T14:39:37.688Z,100949.84
2023-06-11T14:42:08.303Z,100936.19
2023-06-11T14:44:37.322Z,100931.75
2023-06-11T14:47:07.473Z,100931.66
2023-06-11T14:49:36.748Z,100930.25
2023-06-11T14:52:10.636Z,100938.25
2023-06-11T14:54:40.737Z,100938.50
2023-06-11T14:57:14.366Z,100942.16
2023-06-11T14:59:45.013Z,100935.72
2023-06-11T15:02:16.414Z,100931.13
2023-06-11T15:04:46.537Z,100924.06
2023-06-11T15:07:33.193Z,100926.69
2023-06-11T15:10:06.236Z,100924.50
2023-06-11T15:12:35.724Z,100925.41
2023-06-11T15:15:04.863Z,100927.66
2023-06-11T15:17:37.448Z,100934.41
2023-06-11T15:20:08.244Z,100930.38
2023-06-11T15:22:40.654Z,100943.00
2023-06-11T15:25:11.362Z,100937.16
2023-06-11T15:27:41.121Z,100932.72
2023-06-11T15:30:11.453Z,100932.84
2023-06-11T15:32:41.085Z,100922.94
2023-06-11T15:35:12.194Z,100921.31
2023-06-11T15:37:42.820Z,100917.97
2023-06-11T15:40:13.379Z,100927.19
2023-06-11T15:42:43.527Z,100919.69
2023-06-11T15:45:14.198Z,100940.53
2023-06-11T15:47:44.593Z,100943.41
2023-06-11T15:50:14.310Z,100947.16
2023-06-11T15:52:45.594Z,100946.72
2023-06-11T15:55:14.906Z,100947.59
2023-06-11T15:57:45.255Z,100945.63
2023-06-11T16:00:16.039Z,100943.38
2023-06-11T16:02:45.511Z,100936.03
2023-06-11T16:05:14.876Z,100936.03
2023-06-11T16:07:45.649Z,100940.41
2023-06-11T16:10:15.053Z,100934.44
2023-06-11T16:12:45.963Z,100945.66
2023-06-11T16:15:15.259Z,100928.22
2023-06-11T16:17:46.288Z,100935.91
2023-06-11T16:20:18.038Z,100939.00
2023-06-11T16:22:48.923Z,100935.22
2023-06-11T16:25:20.650Z,100940.06
2023-06-11T16:27:50.548Z,100940.25
2023-06-11T16:30:19.386Z,100940.78
2023-06-11T16:32:48.692Z,100932.06
2023-06-11T16:35:18.596Z,100944.31
2023-06-11T16:37:49.542Z,100945.84
2023-06-11T16:40:18.482Z,100935.91
2023-06-11T16:42:47.696Z,100935.19
2023-06-11T16:45:17.060Z,100937.19
2023-06-11T16:47:46.295Z,100940.53
2023-06-11T16:50:15.704Z,100947.50
2023-06-11T16:52:45.043Z,100937.72
2023-06-11T16:55:15.352Z,100942.81
2023-06-11T16:57:44.551Z,100945.84
2023-06-11T17:00:15.994Z,100951.34
2023-06-11T17:02:45.931Z,100939.44
2023-06-11T17:05:15.321Z,100953.03
2023-06-11T17:07:45.515Z,100944.53
2023-06-11T17:10:15.927Z,100955.19
2023-06-11T17:12:47.265Z,100952.31
2023-06-11T17:15:17.532Z,100950.13
2023-06-11T17:17:47.416Z,100949.63
2023-06-11T17:20:18.113Z,100947.28
2023-06-11T17:22:51.728Z,100940.28
2023-06-11T17:25:24.632Z,100948.03
2023-06-11T17:27:54.095Z,100948.53
2023-06-11T17:30:23.497Z,100947.06
2023-06-11T17:32:52.757Z,100946.34
2023-06-11T17:35:21.981Z,100949.59
2023-06-11T17:37:51.138Z,100950.75
2023-06-11T17:40:21.716Z,100949.09
2023-06-11T17:42:52.133Z,100957.47
2023-06-11T17:45:21.060Z,100951.78
2023-06-11T17:47:50.446Z,100949.09
2023-06-11T17:50:19.295Z,100957.50
2023-06-11T17:52:48.665Z,100957.50
2023-06-11T17:55:17.769Z,100954.84
2023-06-11T17:57:49.274Z,100958.53
2023-06-11T18:00:19.415Z,100962.69
2023-06-11T18:02:48.680Z,100961.16
2023-06-11T18:05:17.916Z,100973.56
2023-06-11T18:07:47.668Z,100970.72
2023-06-11T18:10:17.287Z,100966.03
2023-06-11T18:12:47.903Z,100973.41
2023-06-11T18:17:49.045Z,100968.03
2023-06-11T18:20:18.131Z,100962.84
2023-06-11T18:22:47.467Z,100962.31
2023-06-11T18:25:16.569Z,100972.69
2023-06-11T18:27:47.345Z,100969.19
2023-06-11T18:30:19.624Z,100977.03
2023-06-11T18:32:49.355Z,100971.66
2023-06-11T18:35:19.347Z,100976.31
2023-06-11T18:37:48.840Z,100982.19
2023-06-11T18:40:17.753Z,100994.84
2023-06-11T18:42:48.685Z,100995.97
2023-06-11T18:45:17.768Z,100991.91
2023-06-11T18:47:47.022Z,100987.03
2023-06-11T18:50:16.476Z,100996.56
2023-06-11T18:52:45.758Z,100998.56
2023-06-11T18:55:14.740Z,100995.00
2023-06-11T18:57:43.839Z,101000.66
2023-06-11T19:00:16.165Z,101001.81
2023-06-11T19:02:45.597Z,100999.28
2023-06-11T19:05:14.789Z,101003.75
2023-06-11T19:07:44.054Z,101004.56
2023-06-11T19:10:13.370Z,101008.69
2023-06-11T19:12:43.821Z,101010.16
2023-06-11T19:15:14.346Z,101006.94
2023-06-11T19:17:43.771Z,101020.75
2023-06-11T19:20:13.897Z,101016.38
2023-06-11T19:22:43.271Z,101013.47
2023-06-11T19:25:12.272Z,101016.44
2023-06-11T19:27:41.716Z,101020.59
2023-06-11T19:30:11.803Z,101020.34
2023-06-11T19:32:42.657Z,101021.34
2023-06-11T19:35:12.094Z,101021.09
2023-06-11T19:37:41.444Z,101022.88
2023-06-11T19:40:12.472Z,101019.97
2023-06-11T19:42:42.364Z,101029.97
2023-06-11T19:45:11.735Z,101029.59
2023-06-11T19:47:42.451Z,101024.78
2023-06-11T19:50:12.564Z,101028.28
2023-06-11T19:52:42.372Z,101036.53
2023-06-11T19:55:12.042Z,101039.38
2023-06-11T19:57:41.447Z,101030.81
2023-06-11T20:00:12.668Z,101033.09
2023-06-11T20:02:43.634Z,101026.38
2023-06-11T20:05:12.679Z,101033.84
2023-06-11T20:07:41.895Z,101033.63
2023-06-11T20:10:11.861Z,101037.88
2023-06-11T20:12:41.277Z,101032.97
2023-06-11T20:15:11.472Z,101035.91
2023-06-11T20:17:41.976Z,101033.44
2023-06-11T20:20:11.971Z,101037.41
2023-06-11T20:22:41.660Z,101038.69
2023-06-11T20:25:10.822Z,101034.75
2023-06-11T20:27:40.103Z,101039.69
2023-06-11T20:30:10.618Z,101038.03
2023-06-11T20:32:40.672Z,101034.53
2023-06-11T20:35:11.517Z,101039.34
2023-06-11T20:37:41.139Z,101040.84
2023-06-11T20:40:12.045Z,101040.56
2023-06-11T20:42:41.866Z,101037.25
2023-06-11T20:45:12.111Z,101034.03
2023-06-11T20:47:41.512Z,101045.66
2023-06-11T20:50:12.404Z,101042.03
2023-06-11T20:52:41.960Z,101040.09
2023-06-11T20:55:11.585Z,101045.41
2023-06-11T20:57:59.323Z,101048.03
2023-06-11T21:00:28.245Z,101033.84
2023-06-11T21:03:00.027Z,101044.78
2023-06-11T21:05:30.848Z,101040.69
2023-06-11T21:08:00.285Z,101040.25
2023-06-11T21:10:29.204Z,101047.09
2023-06-11T21:12:58.391Z,101048.63
2023-06-11T21:15:27.311Z,101048.31
2023-06-11T21:17:57.639Z,101047.31
2023-06-11T21:20:27.220Z,101046.75
2023-06-11T21:22:57.802Z,101048.28
2023-06-11T21:25:26.746Z,101044.59
2023-06-11T21:27:55.936Z,101053.53
2023-06-11T21:30:24.978Z,101048.47
2023-06-11T21:32:54.236Z,101049.59
2023-06-11T21:35:23.256Z,101054.34
2023-06-11T21:37:52.429Z,101063.69
2023-06-11T21:40:22.833Z,101058.13
2023-06-11T21:42:52.000Z,101054.78
2023-06-11T21:45:21.008Z,101053.50
2023-06-11T21:47:50.409Z,101054.88
2023-06-11T21:50:19.764Z,101053.41
2023-06-11T21:52:48.929Z,101057.69
2023-06-11T21:55:18.176Z,101054.34
2023-06-11T21:57:48.900Z,101050.13
2023-06-11T22:00:20.840Z,101044.47
2023-06-11T22:02:50.027Z,101038.69
2023-06-11T22:05:21.842Z,101040.06
2023-06-11T22:07:52.520Z,101043.84
2023-06-11T22:10:21.706Z,101044.69
2023-06-11T22:12:52.354Z,101059.03
2023-06-11T22:15:21.733Z,101046.88
2023-06-11T22:17:53.912Z,101055.22
2023-06-11T22:20:26.581Z,101052.81
2023-06-11T22:22:56.268Z,101045.00
2023-06-11T22:25:27.319Z,101047.66
2023-06-11T22:27:58.120Z,101043.41
2023-06-11T22:30:26.898Z,101048.28
2023-06-11T22:32:56.131Z,101047.56
2023-06-11T22:35:25.056Z,101040.56
2023-06-11T22:37:54.253Z,101040.78
2023-06-11T22:40:23.713Z,101043.72
2023-06-11T22:42:52.815Z,101046.75
2023-06-11T22:45:23.080Z,101052.44
2023-06-11T22:47:54.426Z,101047.50
2023-06-11T22:50:23.565Z,101045.94
2023-06-11T22:52:54.737Z,101046.41
2023-06-11T22:55:23.633Z,101046.41
2023-06-11T22:57:52.907Z,101043.03
2023-06-11T23:00:23.555Z,101047.50
2023-06-11T23:02:52.804Z,101050.28
2023-06-11T23:05:21.830Z,101050.78
2023-06-11T23:07:51.443Z,101045.13
2023-06-11T23:10:20.438Z,101039.34
2023-06-11T23:12:50.323Z,101043.94
2023-06-11T23:15:19.506Z,101042.38
2023-06-11T23:17:54.885Z,101034.06
2023-06-11T23:20:28.563Z,101041.31
2023-06-11T23:22:58.457Z,101031.88
2023-06-11T23:25:28.190Z,101035.88
2023-06-11T23:27:57.408Z,101040.47
2023-06-11T23:30:26.777Z,101035.16
2023-06-11T23:33:01.121Z,101033.34
2023-06-11T23:35:30.174Z,101028.53
2023-06-11T23:37:59.289Z,101028.53
2023-06-11T23:40:28.098Z,101025.03
2023-06-11T23:42:57.314Z,101033.22
2023-06-11T23:45:26.206Z,101035.88
2023-06-11T23:47:56.793Z,101023.81
2023-06-11T23:50:25.974Z,101027.94
2023-06-11T23:52:55.064Z,101027.09
2023-06-11T23:55:24.500Z,101023.47
2023-06-11T23:58:20.733Z,101024.19
